createdAt,value
2018-07-22T00:01:47.635Z,5.87
2018-07-22T00:04:16.626Z,5.60
2018-07-22T00:06:45.601Z,5.30
2018-07-22T00:09:14.838Z,5.23
2018-07-22T00:11:43.782Z,5.40
2018-07-22T00:14:12.914Z,5.33
2018-07-22T00:16:41.967Z,5.30
2018-07-22T00:19:11.151Z,5.87
2018-07-22T00:21:40.160Z,5.30
2018-07-22T00:24:09.350Z,5.53
2018-07-22T00:26:38.405Z,5.40
2018-07-22T00:29:07.411Z,6.20
2018-07-22T00:31:36.390Z,5.70
2018-07-22T00:34:05.568Z,5.50
2018-07-22T00:36:34.538Z,5.20
2018-07-22T00:39:03.674Z,5.83
2018-07-22T00:41:32.649Z,5.50
2018-07-22T00:44:01.734Z,5.73
2018-07-22T00:46:30.856Z,5.97
2018-07-22T00:48:59.797Z,5.90
2018-07-22T00:51:28.929Z,5.90
2018-07-22T00:53:57.952Z,5.40
2018-07-22T00:56:26.896Z,6.10
2018-07-22T00:58:55.868Z,5.80
2018-07-22T01:01:24.868Z,6.00
2018-07-22T01:03:53.902Z,5.80
2018-07-22T01:06:22.982Z,5.63
2018-07-22T01:08:52.037Z,5.50
2018-07-22T01:11:20.972Z,5.87
2018-07-22T01:13:49.909Z,5.63
2018-07-22T01:16:19.053Z,5.67
2018-07-22T01:18:48.127Z,5.93
2018-07-22T01:21:17.186Z,5.63
2018-07-22T01:23:46.183Z,5.93
2018-07-22T01:26:15.112Z,5.87
2018-07-22T01:28:44.000Z,5.20
2018-07-22T01:31:13.067Z,5.90
2018-07-22T01:33:42.108Z,5.90
2018-07-22T01:36:11.109Z,5.97
2018-07-22T01:38:40.069Z,5.80
2018-07-22T01:41:09.255Z,5.97
2018-07-22T01:43:38.338Z,5.50
2018-07-22T01:46:07.425Z,5.47
2018-07-22T01:48:36.450Z,5.37
2018-07-22T01:51:05.412Z,5.60
2018-07-22T01:53:34.370Z,5.47
2018-07-22T01:56:03.434Z,5.27
2018-07-22T01:58:32.514Z,6.07
2018-07-22T02:01:01.542Z,6.23
2018-07-22T02:03:30.515Z,5.60
2018-07-22T02:05:59.545Z,6.20
2018-07-22T02:08:28.585Z,5.93
2018-07-22T02:10:57.549Z,6.60
2018-07-22T02:13:26.496Z,6.63
2018-07-22T02:15:55.514Z,6.70
2018-07-22T02:18:24.544Z,6.43
2018-07-22T02:20:53.633Z,5.77
2018-07-22T02:23:22.652Z,6.17
2018-07-22T02:25:51.691Z,6.07
2018-07-22T02:28:20.749Z,6.27
2018-07-22T02:30:49.752Z,6.13
2018-07-22T02:33:18.780Z,6.03
2018-07-22T02:35:47.703Z,4.70
2018-07-22T02:38:16.964Z,5.40
2018-07-22T02:40:45.935Z,4.93
2018-07-22T02:43:15.000Z,5.17
2018-07-22T02:45:44.011Z,5.30
2018-07-22T02:48:12.976Z,5.27
2018-07-22T02:50:42.099Z,5.30
2018-07-22T02:53:11.137Z,5.30
2018-07-22T02:55:40.125Z,4.50
2018-07-22T02:58:09.143Z,5.20
2018-07-22T03:00:38.153Z,4.43
2018-07-22T03:03:07.117Z,4.67
2018-07-22T03:05:36.140Z,4.80
2018-07-22T03:08:05.220Z,4.97
2018-07-22T03:10:34.246Z,5.13
2018-07-22T03:13:03.170Z,5.50
2018-07-22T03:15:32.325Z,4.83
2018-07-22T03:18:01.377Z,5.40
2018-07-22T03:20:30.478Z,5.83
2018-07-22T03:22:59.515Z,5.60
2018-07-22T03:25:28.494Z,5.63
2018-07-22T03:27:57.450Z,6.03
2018-07-22T03:30:26.469Z,6.00
2018-07-22T03:32:55.400Z,6.03
2018-07-22T03:35:24.329Z,6.17
2018-07-22T03:37:53.476Z,6.33
2018-07-22T03:40:22.438Z,6.47
2018-07-22T03:42:51.394Z,6.93
2018-07-22T03:45:20.365Z,7.20
2018-07-22T03:47:49.371Z,6.47
2018-07-22T03:50:18.384Z,6.80
2018-07-22T03:52:47.344Z,7.47
2018-07-22T03:55:16.286Z,7.10
2018-07-22T03:57:45.385Z,7.13
2018-07-22T04:00:14.329Z,6.70
2018-07-22T04:02:43.335Z,6.80
2018-07-22T04:05:12.342Z,11.27
2018-07-22T04:07:41.396Z,12.63
2018-07-22T04:10:10.500Z,6.97
2018-07-22T04:12:39.561Z,6.93
2018-07-22T04:15:08.632Z,6.43
2018-07-22T04:17:37.825Z,6.40
2018-07-22T04:20:06.921Z,7.10
2018-07-22T04:22:36.009Z,7.63
2018-07-22T04:25:05.192Z,6.90
2018-07-22T04:27:34.352Z,7.23
2018-07-22T04:30:03.512Z,6.87
2018-07-22T04:32:32.381Z,7.53
2018-07-22T04:35:01.306Z,6.90
2018-07-22T04:37:30.301Z,6.83
2018-07-22T04:39:59.287Z,7.13
2018-07-22T04:42:28.300Z,7.23
2018-07-22T04:44:57.368Z,6.90
2018-07-22T04:47:26.338Z,7.50
2018-07-22T04:49:55.232Z,7.53
2018-07-22T04:52:24.145Z,7.67
2018-07-22T04:54:53.208Z,7.60
2018-07-22T04:57:22.245Z,7.63
2018-07-22T04:59:51.283Z,7.50
2018-07-22T05:02:20.443Z,7.07
2018-07-22T05:04:49.505Z,7.20
2018-07-22T05:07:18.540Z,6.83
2018-07-22T05:09:47.600Z,7.33
2018-07-22T05:12:16.626Z,7.13
2018-07-22T05:14:45.673Z,7.30
2018-07-22T05:17:14.604Z,7.60
2018-07-22T05:19:43.550Z,7.70
2018-07-22T05:22:12.492Z,7.90
2018-07-22T05:24:41.498Z,7.20
2018-07-22T05:27:10.535Z,7.43
2018-07-22T05:29:39.602Z,7.20
2018-07-22T05:32:08.471Z,7.43
2018-07-22T05:34:37.353Z,7.83
2018-07-22T05:37:06.324Z,7.80
2018-07-22T05:39:35.285Z,8.23
2018-07-22T05:42:04.397Z,9.87
2018-07-22T05:44:33.475Z,10.50
2018-07-22T05:47:02.428Z,9.23
2018-07-22T05:49:31.381Z,8.83
2018-07-22T05:52:00.349Z,8.93
2018-07-22T05:54:29.308Z,8.47
2018-07-22T05:56:58.488Z,8.37
2018-07-22T05:59:27.584Z,8.50
2018-07-22T06:01:56.650Z,8.57
2018-07-22T06:04:25.598Z,9.10
2018-07-22T06:06:54.696Z,7.97
2018-07-22T06:09:23.655Z,7.70
2018-07-22T06:11:53.025Z,8.47
2018-07-22T06:14:22.103Z,9.10
2018-07-22T06:16:51.064Z,8.20
2018-07-22T06:19:19.989Z,7.83
2018-07-22T06:21:49.149Z,7.10
2018-07-22T06:24:18.157Z,7.90
2018-07-22T06:26:47.189Z,8.03
2018-07-22T06:29:16.270Z,8.43
2018-07-22T06:31:45.379Z,8.07
2018-07-22T06:34:14.836Z,8.67
2018-07-22T06:36:43.870Z,9.20
2018-07-22T06:39:13.901Z,8.97
2018-07-22T06:41:44.114Z,8.70
2018-07-22T06:44:13.227Z,8.37
2018-07-22T06:46:42.200Z,8.30
2018-07-22T06:49:11.291Z,8.43
2018-07-22T06:51:40.230Z,8.30
2018-07-22T06:54:09.387Z,8.47
2018-07-22T06:56:38.623Z,8.33
2018-07-22T06:59:07.722Z,7.40
2018-07-22T07:01:36.844Z,7.77
2018-07-22T07:04:05.926Z,7.93
2018-07-22T07:06:35.059Z,7.90
2018-07-22T07:09:04.344Z,7.30
2018-07-22T07:11:33.470Z,6.87
2018-07-22T07:14:02.653Z,6.60
2018-07-22T07:16:31.517Z,6.40
2018-07-22T07:19:00.572Z,6.60
2018-07-22T07:21:29.490Z,7.00
2018-07-22T07:23:58.701Z,6.47
2018-07-22T07:26:27.662Z,6.43
2018-07-22T07:28:56.637Z,6.70
2018-07-22T07:31:25.645Z,6.37
2018-07-22T07:33:54.774Z,6.00
2018-07-22T07:36:23.765Z,6.40
2018-07-22T07:38:52.939Z,6.70
2018-07-22T07:41:21.896Z,5.93
2018-07-22T07:43:50.973Z,6.80
2018-07-22T07:46:19.972Z,6.40
2018-07-22T07:48:49.023Z,6.43
2018-07-22T07:51:18.028Z,6.60
2018-07-22T07:53:47.081Z,6.97
2018-07-22T07:56:16.069Z,6.50
2018-07-22T07:58:45.156Z,7.13
2018-07-22T08:01:14.252Z,6.20
2018-07-22T08:03:43.236Z,6.80
2018-07-22T08:06:12.291Z,6.80
2018-07-22T08:08:41.320Z,6.73
2018-07-22T08:11:10.359Z,6.40
2018-07-22T08:13:39.392Z,7.03
2018-07-22T08:16:08.331Z,6.57
2018-07-22T08:18:37.269Z,6.83
2018-07-22T08:21:06.326Z,6.27
2018-07-22T08:23:35.291Z,6.77
2018-07-22T08:26:04.658Z,6.50
2018-07-22T08:28:44.453Z,6.33
2018-07-22T08:31:13.507Z,6.63
2018-07-22T08:33:42.582Z,6.10
2018-07-22T08:36:11.640Z,6.43
2018-07-22T08:38:40.664Z,5.50
2018-07-22T08:41:09.681Z,5.53
2018-07-22T08:43:38.742Z,6.10
2018-07-22T08:46:07.719Z,5.87
2018-07-22T08:48:36.717Z,5.83
2018-07-22T08:51:05.738Z,6.00
2018-07-22T08:53:34.720Z,6.40
2018-07-22T08:56:03.764Z,6.00
2018-07-22T08:58:32.813Z,6.10
2018-07-22T09:01:01.912Z,5.80
2018-07-22T09:03:30.927Z,6.03
2018-07-22T09:05:59.968Z,6.43
2018-07-22T09:08:29.050Z,7.00
2018-07-22T09:10:58.096Z,6.57
2018-07-22T09:13:27.023Z,6.53
2018-07-22T09:15:56.014Z,6.20
2018-07-22T09:18:25.052Z,6.33
2018-07-22T09:20:54.006Z,6.33
2018-07-22T09:23:23.074Z,5.97
2018-07-22T09:25:52.043Z,6.47
2018-07-22T09:28:21.033Z,6.47
2018-07-22T09:30:50.018Z,6.70
2018-07-22T09:33:18.973Z,6.27
2018-07-22T09:35:48.214Z,5.67
2018-07-22T09:38:17.150Z,5.80
2018-07-22T09:40:46.202Z,5.87
2018-07-22T09:43:15.197Z,5.43
2018-07-22T09:45:44.189Z,4.90
2018-07-22T09:48:13.105Z,5.57
2018-07-22T09:50:42.129Z,5.30
2018-07-22T09:53:11.132Z,5.30
2018-07-22T09:55:40.147Z,5.47
2018-07-22T09:58:09.081Z,5.40
2018-07-22T10:00:43.098Z,5.50
2018-07-22T10:03:12.160Z,5.37
2018-07-22T10:05:41.168Z,5.10
2018-07-22T10:08:10.446Z,5.60
2018-07-22T10:10:39.549Z,5.47
2018-07-22T10:13:09.047Z,5.10
2018-07-22T10:15:38.109Z,5.10
2018-07-22T10:18:07.204Z,4.93
2018-07-22T10:20:36.185Z,5.40
2018-07-22T10:23:05.176Z,5.20
2018-07-22T10:25:34.144Z,5.23
2018-07-22T10:28:03.917Z,4.90
2018-07-22T10:30:32.866Z,4.87
2018-07-22T10:33:01.757Z,4.73
2018-07-22T10:35:30.807Z,5.12
2018-07-22T10:38:00.301Z,5.07
2018-07-22T10:40:29.206Z,5.00
2018-07-22T10:42:59.179Z,5.80
2018-07-22T10:45:28.615Z,5.08
2018-07-22T10:47:57.758Z,4.90
2018-07-22T10:50:26.714Z,5.00
2018-07-22T10:52:56.286Z,4.92
2018-07-22T10:55:25.650Z,4.50
2018-07-22T10:57:55.152Z,4.63
2018-07-22T11:00:24.409Z,4.60
2018-07-22T11:02:53.369Z,5.17
2018-07-22T11:05:22.283Z,4.50
2018-07-22T11:07:51.207Z,5.00
2018-07-22T11:10:20.083Z,4.62
2018-07-22T11:12:48.964Z,4.80
2018-07-22T11:15:17.921Z,4.42
2018-07-22T11:17:46.810Z,4.97
2018-07-22T11:20:15.723Z,4.33
2018-07-22T11:22:44.958Z,3.93
2018-07-22T11:25:14.041Z,4.60
2018-07-22T11:27:42.881Z,4.70
2018-07-22T11:30:12.253Z,4.35
2018-07-22T11:32:41.153Z,4.60
2018-07-22T11:35:10.064Z,4.42
2018-07-22T11:37:39.051Z,4.53
2018-07-22T11:40:09.206Z,4.87
2018-07-22T11:42:38.185Z,4.50
2018-07-22T11:45:07.073Z,4.33
2018-07-22T11:47:36.386Z,4.50
2018-07-22T11:50:05.612Z,4.78
2018-07-22T11:52:34.565Z,4.53
2018-07-22T11:55:03.438Z,4.78
2018-07-22T11:57:32.346Z,4.20
2018-07-22T12:00:01.334Z,4.60
2018-07-22T12:02:30.531Z,4.30
2018-07-22T12:04:59.416Z,4.22
2018-07-22T12:07:28.272Z,4.10
2018-07-22T12:09:57.213Z,4.37
2018-07-22T12:12:26.112Z,4.72
2018-07-22T12:14:55.001Z,4.47
2018-07-22T12:17:23.924Z,4.28
2018-07-22T12:19:52.976Z,4.03
2018-07-22T12:22:22.079Z,4.17
2018-07-22T12:24:50.987Z,4.50
2018-07-22T12:27:19.834Z,4.40
2018-07-22T12:29:48.779Z,4.17
2018-07-22T12:32:17.713Z,5.00
2018-07-22T12:34:46.808Z,4.40
2018-07-22T12:37:15.715Z,4.22
2018-07-22T12:39:44.671Z,4.42
2018-07-22T12:42:13.618Z,4.30
2018-07-22T12:44:42.596Z,5.10
2018-07-22T12:47:11.596Z,4.65
2018-07-22T12:49:40.477Z,4.12
2018-07-22T12:52:09.461Z,4.17
2018-07-22T12:54:38.315Z,4.25
2018-07-22T12:57:07.249Z,4.92
2018-07-22T12:59:36.278Z,4.70
2018-07-22T13:02:05.235Z,4.35
2018-07-22T13:04:34.272Z,4.95
2018-07-22T13:07:03.176Z,4.75
2018-07-22T13:09:32.112Z,4.50
2018-07-22T13:12:00.910Z,4.40
2018-07-22T13:14:29.896Z,4.70
2018-07-22T13:16:58.740Z,4.45
2018-07-22T13:19:27.603Z,5.25
2018-07-22T13:21:56.522Z,5.00
2018-07-22T13:24:25.537Z,4.87
2018-07-22T13:26:54.492Z,4.45
2018-07-22T13:29:23.414Z,4.62
2018-07-22T13:31:52.321Z,4.87
2018-07-22T13:34:21.197Z,4.80
2018-07-22T13:36:50.197Z,5.00
2018-07-22T13:39:19.202Z,4.72
2018-07-22T13:41:48.161Z,4.97
2018-07-22T13:44:17.134Z,4.70
2018-07-22T13:46:46.132Z,4.85
2018-07-22T13:49:15.160Z,4.83
2018-07-22T13:51:44.069Z,6.03
2018-07-22T13:54:13.043Z,4.95
2018-07-22T13:56:42.066Z,4.97
2018-07-22T13:59:10.981Z,4.62
2018-07-22T14:01:39.858Z,4.60
2018-07-22T14:04:08.805Z,4.70
2018-07-22T14:06:37.755Z,4.45
2018-07-22T14:09:08.772Z,5.27
2018-07-22T14:11:37.725Z,4.85
2018-07-22T14:14:06.728Z,4.90
2018-07-22T14:16:35.832Z,4.93
2018-07-22T14:19:04.897Z,5.62
2018-07-22T14:21:33.893Z,4.97
2018-07-22T14:24:02.938Z,4.58
2018-07-22T14:26:31.883Z,4.95
2018-07-22T14:29:00.844Z,4.75
2018-07-22T14:31:29.763Z,4.72
2018-07-22T14:33:58.780Z,4.78
2018-07-22T14:36:27.958Z,4.92
2018-07-22T14:38:56.940Z,4.42
2018-07-22T14:41:25.901Z,4.57
2018-07-22T14:43:54.864Z,4.62
2018-07-22T14:46:23.764Z,4.22
2018-07-22T14:48:52.728Z,4.60
2018-07-22T14:51:21.953Z,4.47
2018-07-22T14:53:50.895Z,4.72
2018-07-22T14:56:19.809Z,5.13
2018-07-22T14:58:48.818Z,4.90
2018-07-22T15:01:17.776Z,5.28
2018-07-22T15:03:46.652Z,4.90
2018-07-22T15:06:15.605Z,5.37
2018-07-22T15:08:44.454Z,5.00
2018-07-22T15:11:13.421Z,4.50
2018-07-22T15:13:42.446Z,4.50
2018-07-22T15:16:11.400Z,5.25
2018-07-22T15:18:40.368Z,5.20
2018-07-22T15:21:09.289Z,4.97
2018-07-22T15:23:38.147Z,4.80
2018-07-22T15:26:07.137Z,5.00
2018-07-22T15:28:36.189Z,5.73
2018-07-22T15:31:05.259Z,5.12
2018-07-22T15:33:34.222Z,5.45
2018-07-22T15:36:03.083Z,4.95
2018-07-22T15:38:31.936Z,5.50
2018-07-22T15:41:00.902Z,5.47
2018-07-22T15:43:29.854Z,5.23
2018-07-22T15:45:58.730Z,5.05
2018-07-22T15:48:27.625Z,4.97
2018-07-22T15:50:56.544Z,4.58
2018-07-22T15:53:25.456Z,6.28
2018-07-22T15:55:54.458Z,5.50
2018-07-22T15:58:23.510Z,5.12
2018-07-22T16:00:52.371Z,5.10
2018-07-22T16:03:21.362Z,5.07
2018-07-22T16:05:50.285Z,5.15
2018-07-22T16:08:19.309Z,5.08
2018-07-22T16:10:48.201Z,5.70
2018-07-22T16:13:17.160Z,5.70
2018-07-22T16:15:46.006Z,5.63
2018-07-22T16:18:14.954Z,5.90
2018-07-22T16:20:43.913Z,6.40
2018-07-22T16:23:12.934Z,6.10
2018-07-22T16:25:41.951Z,6.20
2018-07-22T16:28:10.954Z,5.67
2018-07-22T16:30:39.901Z,5.57
2018-07-22T16:33:08.851Z,4.83
2018-07-22T16:35:37.790Z,3.80
2018-07-22T16:38:06.815Z,3.87
2018-07-22T16:40:35.957Z,4.00
2018-07-22T16:43:04.936Z,4.60
2018-07-22T16:45:33.956Z,4.03
2018-07-22T16:48:02.941Z,4.63
2018-07-22T16:50:32.083Z,3.83
2018-07-22T16:53:01.023Z,4.43
2018-07-22T16:55:30.296Z,4.70
2018-07-22T16:57:59.259Z,4.80
2018-07-22T17:00:28.330Z,4.80
2018-07-22T17:02:57.243Z,4.83
2018-07-22T17:05:26.313Z,5.03
2018-07-22T17:07:55.356Z,7.00
2018-07-22T17:10:24.397Z,5.97
2018-07-22T17:12:53.388Z,6.17
2018-07-22T17:15:22.387Z,5.10
2018-07-22T17:17:51.386Z,5.00
2018-07-22T17:20:21.112Z,5.00
2018-07-22T17:22:50.075Z,5.10
2018-07-22T17:25:19.057Z,5.00
2018-07-22T17:27:48.094Z,5.97
2018-07-22T17:30:16.943Z,5.03
2018-07-22T17:32:45.997Z,4.30
2018-07-22T17:35:14.977Z,4.33
2018-07-22T17:37:43.893Z,4.30
2018-07-22T17:40:12.825Z,4.50
2018-07-22T17:42:41.872Z,4.17
2018-07-22T17:45:10.860Z,4.10
2018-07-22T17:47:39.830Z,4.57
2018-07-22T17:50:08.779Z,4.33
2018-07-22T17:52:37.722Z,4.60
2018-07-22T17:55:06.828Z,5.60
2018-07-22T17:57:35.892Z,5.63
2018-07-22T18:00:05.065Z,5.40
2018-07-22T18:02:34.086Z,5.43
2018-07-22T18:05:03.286Z,6.00
2018-07-22T18:07:32.233Z,6.00
2018-07-22T18:10:01.172Z,5.30
2018-07-22T18:12:30.210Z,5.80
2018-07-22T18:14:59.141Z,4.33
2018-07-22T18:17:28.046Z,4.87
2018-07-22T18:19:57.061Z,4.70
2018-07-22T18:22:26.005Z,5.20
2018-07-22T18:24:54.926Z,4.60
2018-07-22T18:27:23.805Z,4.77
2018-07-22T18:29:52.717Z,5.13
2018-07-22T18:32:21.756Z,5.10
2018-07-22T18:34:50.652Z,5.17
2018-07-22T18:37:19.698Z,4.67
2018-07-22T18:39:48.523Z,4.97
2018-07-22T18:42:17.481Z,4.67
2018-07-22T18:44:46.388Z,5.27
2018-07-22T18:47:15.280Z,5.10
2018-07-22T18:49:44.226Z,5.80
2018-07-22T18:52:13.183Z,5.13
2018-07-22T18:54:42.195Z,5.93
2018-07-22T18:57:11.368Z,5.67
2018-07-22T18:59:40.471Z,4.80
2018-07-22T19:02:09.474Z,5.20
2018-07-22T19:04:38.536Z,5.17
2018-07-22T19:07:07.453Z,4.97
2018-07-22T19:09:36.509Z,5.33
2018-07-22T19:12:05.466Z,5.60
2018-07-22T19:14:34.436Z,5.17
2018-07-22T19:17:03.387Z,5.90
2018-07-22T19:19:32.456Z,5.60
2018-07-22T19:22:01.377Z,5.57
2018-07-22T19:24:30.422Z,5.47
2018-07-22T19:26:59.428Z,5.60
2018-07-22T19:29:28.406Z,5.30
2018-07-22T19:31:57.466Z,5.47
2018-07-22T19:34:26.484Z,5.20
2018-07-22T19:36:55.526Z,5.70
2018-07-22T19:39:24.585Z,5.07
2018-07-22T19:41:53.633Z,4.70
2018-07-22T19:44:22.508Z,4.93
2018-07-22T19:46:51.458Z,5.50
2018-07-22T19:49:20.439Z,5.27
2018-07-22T19:51:49.532Z,5.30
2018-07-22T19:54:18.368Z,4.93
2018-07-22T19:56:47.335Z,5.17
2018-07-22T19:59:16.283Z,5.17
2018-07-22T20:01:45.303Z,5.47
2018-07-22T20:04:15.362Z,5.10
2018-07-22T20:06:44.947Z,5.20
2018-07-22T20:09:14.784Z,4.90
2018-07-22T20:11:44.269Z,5.57
2018-07-22T20:14:13.175Z,5.93
2018-07-22T20:16:42.083Z,5.10
2018-07-22T20:19:11.051Z,5.13
2018-07-22T20:21:40.162Z,6.10
2018-07-22T20:24:09.110Z,5.67
2018-07-22T20:26:37.987Z,5.50
2018-07-22T20:29:06.840Z,5.40
2018-07-22T20:31:35.811Z,5.13
2018-07-22T20:34:04.800Z,5.57
2018-07-22T20:36:33.752Z,10.00
2018-07-22T20:39:02.741Z,6.70
2018-07-22T20:41:31.900Z,5.67
2018-07-22T20:44:00.856Z,5.63
2018-07-22T20:46:29.784Z,5.53
2018-07-22T20:48:58.658Z,6.00
2018-07-22T20:51:27.662Z,5.93
2018-07-22T20:53:56.613Z,5.60
2018-07-22T20:56:25.550Z,5.80
2018-07-22T20:58:54.499Z,5.53
2018-07-22T21:01:23.460Z,5.63
2018-07-22T21:03:52.653Z,5.77
2018-07-22T21:06:21.536Z,5.07
2018-07-22T21:08:50.364Z,5.73
2018-07-22T21:11:19.231Z,5.63
2018-07-22T21:13:48.112Z,5.17
2018-07-22T21:16:17.248Z,4.87
2018-07-22T21:18:46.261Z,5.40
2018-07-22T21:21:16.835Z,4.63
2018-07-22T21:23:45.825Z,5.10
2018-07-22T21:26:14.715Z,4.50
2018-07-22T21:28:43.561Z,5.20
2018-07-22T21:31:12.399Z,4.93
2018-07-22T21:33:41.343Z,4.90
2018-07-22T21:36:10.269Z,4.77
2018-07-22T21:38:39.170Z,4.63
2018-07-22T21:41:08.105Z,5.00
2018-07-22T21:43:36.897Z,4.23
2018-07-22T21:46:05.770Z,4.40
2018-07-22T21:48:34.702Z,4.57
2018-07-22T21:51:03.654Z,4.47
2018-07-22T21:53:32.529Z,4.40
2018-07-22T21:56:01.383Z,4.20
2018-07-22T21:58:30.410Z,4.20
2018-07-22T22:00:59.306Z,4.23
2018-07-22T22:03:28.204Z,4.30
2018-07-22T22:05:57.074Z,4.67
2018-07-22T22:08:26.052Z,4.40
2018-07-22T22:10:54.966Z,4.20
2018-07-22T22:13:23.823Z,4.13
2018-07-22T22:15:52.728Z,4.37
2018-07-22T22:18:21.607Z,4.30
2018-07-22T22:20:50.539Z,4.40
2018-07-22T22:23:19.499Z,4.37
2018-07-22T22:25:48.443Z,4.40
2018-07-22T22:28:17.787Z,4.60
2018-07-22T22:30:46.704Z,4.70
2018-07-22T22:33:15.583Z,4.73
2018-07-22T22:35:44.445Z,4.97
2018-07-22T22:38:13.413Z,4.67
2018-07-22T22:40:42.322Z,4.80
2018-07-22T22:43:11.167Z,5.13
2018-07-22T22:45:40.005Z,4.87
2018-07-22T22:48:08.991Z,5.47
2018-07-22T22:50:37.887Z,4.77
2018-07-22T22:53:06.756Z,5.00
2018-07-22T22:55:35.686Z,5.03
2018-07-22T22:58:15.541Z,4.93
2018-07-22T23:00:44.561Z,4.60
2018-07-22T23:03:13.498Z,6.20
2018-07-22T23:05:42.471Z,5.57
2018-07-22T23:08:11.361Z,5.93
2018-07-22T23:10:40.237Z,5.77
2018-07-22T23:13:09.122Z,6.27
2018-07-22T23:15:38.076Z,6.03
2018-07-22T23:18:06.959Z,6.43
2018-07-22T23:20:35.858Z,6.37
2018-07-22T23:23:04.923Z,6.30
2018-07-22T23:25:33.824Z,5.93
2018-07-22T23:28:02.694Z,5.70
2018-07-22T23:30:31.571Z,5.80
2018-07-22T23:33:00.579Z,6.07
2018-07-22T23:35:29.443Z,5.43
2018-07-22T23:37:58.367Z,5.70
2018-07-22T23:40:27.359Z,5.80
2018-07-22T23:42:56.286Z,5.47
2018-07-22T23:45:25.170Z,5.17
2018-07-22T23:47:54.070Z,5.20
2018-07-22T23:50:22.955Z,5.50
2018-07-22T23:52:51.852Z,5.67
2018-07-22T23:55:20.858Z,5.73
2018-07-22T23:57:49.689Z,6.30
